createdAt,value
2018-09-28T00:01:57.242Z,95690.72
2018-09-28T00:04:26.579Z,95690.59
2018-09-28T00:06:55.783Z,95693.33
2018-09-28T00:09:24.981Z,95686.70
2018-09-28T00:11:54.218Z,95687.91
2018-09-28T00:14:23.454Z,95690.02
2018-09-28T00:16:52.726Z,95687.43
2018-09-28T00:19:23.211Z,95685.97
2018-09-28T00:21:52.453Z,95683.39
2018-09-28T00:24:21.675Z,95677.84
2018-09-28T00:26:50.894Z,95673.38
2018-09-28T00:29:20.127Z,95673.98
2018-09-28T00:31:49.333Z,95677.30
2018-09-28T00:34:18.560Z,95672.17
2018-09-28T00:36:47.803Z,95668.88
2018-09-28T00:39:17.006Z,95671.61
2018-09-28T00:41:46.239Z,95665.11
2018-09-28T00:44:15.455Z,95664.05
2018-09-28T00:46:44.667Z,95651.53
2018-09-28T00:49:13.891Z,95652.28
2018-09-28T00:51:43.138Z,95649.44
2018-09-28T00:54:12.346Z,95644.03
2018-09-28T00:56:41.577Z,95642.88
2018-09-28T00:59:10.789Z,95635.89
2018-09-28T01:01:40.017Z,95640.84
2018-09-28T01:04:09.219Z,95636.98
2018-09-28T01:06:38.438Z,95636.41
2018-09-28T01:09:10.534Z,95624.48
2018-09-28T01:11:39.746Z,95632.27
2018-09-28T01:14:08.958Z,95627.75
2018-09-28T01:16:38.171Z,95621.86
2018-09-28T01:19:07.495Z,95619.85
2018-09-28T01:21:36.704Z,95620.72
2018-09-28T01:24:05.971Z,95617.16
2018-09-28T01:26:35.210Z,95617.39
2018-09-28T01:29:04.571Z,95617.41
2018-09-28T01:31:33.803Z,95613.41
2018-09-28T01:34:03.016Z,95612.20
2018-09-28T01:36:32.246Z,95615.28
2018-09-28T01:39:01.470Z,95611.27
2018-09-28T01:41:30.670Z,95615.29
2018-09-28T01:43:59.903Z,95613.30
2018-09-28T01:46:29.138Z,95608.44
2018-09-28T01:48:58.342Z,95611.41
2018-09-28T01:51:27.589Z,95612.48
2018-09-28T01:53:56.822Z,95607.75
2018-09-28T01:56:26.052Z,95605.98
2018-09-28T01:58:55.278Z,95603.97
2018-09-28T02:01:24.658Z,95599.39
2018-09-28T02:03:54.252Z,95599.39
2018-09-28T02:06:23.476Z,95593.50
2018-09-28T02:08:53.548Z,95590.67
2018-09-28T02:11:22.775Z,95586.51
2018-09-28T02:13:51.993Z,95594.20
2018-09-28T02:16:21.407Z,95585.21
2018-09-28T02:18:50.661Z,95581.91
2018-09-28T02:21:19.851Z,95575.80
2018-09-28T02:23:49.074Z,95577.20
2018-09-28T02:26:18.342Z,95576.73
2018-09-28T02:28:47.607Z,95569.05
2018-09-28T02:31:16.838Z,95585.23
2018-09-28T02:33:46.071Z,95579.10
2018-09-28T02:36:15.378Z,95570.37
2018-09-28T02:38:44.611Z,95578.03
2018-09-28T02:41:13.828Z,95574.48
2018-09-28T02:43:43.093Z,95573.18
2018-09-28T02:46:12.289Z,95572.61
2018-09-28T02:48:41.518Z,95568.34
2018-09-28T02:51:10.784Z,95563.97
2018-09-28T02:53:40.012Z,95565.41
2018-09-28T02:56:09.212Z,95567.84
2018-09-28T02:58:38.431Z,95567.05
2018-09-28T03:01:07.668Z,95567.05
2018-09-28T03:03:36.903Z,95566.69
2018-09-28T03:06:06.124Z,95563.63
2018-09-28T03:08:35.323Z,95559.64
2018-09-28T03:11:04.539Z,95558.91
2018-09-28T03:13:33.751Z,95557.02
2018-09-28T03:16:02.976Z,95559.61
2018-09-28T03:18:32.184Z,95551.02
2018-09-28T03:21:01.411Z,95556.55
2018-09-28T03:23:30.627Z,95552.79
2018-09-28T03:25:59.908Z,95552.89
2018-09-28T03:28:29.074Z,95551.48
2018-09-28T03:30:58.290Z,95551.82
2018-09-28T03:33:28.762Z,95545.70
2018-09-28T03:35:58.119Z,95550.66
2018-09-28T03:38:27.345Z,95550.30
2018-09-28T03:40:56.543Z,95546.04
2018-09-28T03:43:25.774Z,95546.04
2018-09-28T03:45:54.987Z,95547.70
2018-09-28T03:48:24.323Z,95549.83
2018-09-28T03:50:53.535Z,95547.00
2018-09-28T03:53:22.750Z,95550.66
2018-09-28T03:55:51.995Z,95551.23
2018-09-28T03:58:21.217Z,95545.44
2018-09-28T04:00:50.622Z,95545.70
2018-09-28T04:03:19.847Z,95548.03
2018-09-28T04:05:49.079Z,95547.94
2018-09-28T04:08:18.308Z,95546.73
2018-09-28T04:10:47.524Z,95541.91
2018-09-28T04:13:16.751Z,95541.34
2018-09-28T04:15:45.971Z,95547.70
2018-09-28T04:18:15.180Z,95545.56
2018-09-28T04:20:44.412Z,95541.31
2018-09-28T04:23:13.650Z,95542.01
2018-09-28T04:25:42.871Z,95548.48
2018-09-28T04:28:12.102Z,95551.46
2018-09-28T04:30:41.316Z,95548.25
2018-09-28T04:33:10.532Z,95544.03
2018-09-28T04:35:39.751Z,95552.52
2018-09-28T04:38:08.976Z,95549.22
2018-09-28T04:40:38.206Z,95557.34
2018-09-28T04:43:07.447Z,95554.75
2018-09-28T04:45:36.701Z,95559.00
2018-09-28T04:48:05.895Z,95557.58
2018-09-28T04:50:35.151Z,95546.03
2018-09-28T04:53:04.376Z,95547.70
2018-09-28T04:55:33.626Z,95551.59
2018-09-28T04:58:02.862Z,95554.42
2018-09-28T05:00:32.072Z,95555.13
2018-09-28T05:03:01.295Z,95556.28
2018-09-28T05:05:30.519Z,95553.12
2018-09-28T05:07:59.735Z,95549.23
2018-09-28T05:10:28.990Z,95549.93
2018-09-28T05:12:58.246Z,95553.35
2018-09-28T05:15:30.258Z,95560.21
2018-09-28T05:17:59.491Z,95559.72
2018-09-28T05:20:29.199Z,95562.20
2018-09-28T05:22:58.410Z,95562.44
2018-09-28T05:25:27.666Z,95567.77
2018-09-28T05:27:56.830Z,95567.41
2018-09-28T05:30:26.039Z,95566.23
2018-09-28T05:32:55.370Z,95561.50
2018-09-28T05:35:24.519Z,95560.67
2018-09-28T05:37:53.742Z,95550.78
2018-09-28T05:40:22.970Z,95556.31
2018-09-28T05:42:52.229Z,95558.77
2018-09-28T05:45:21.430Z,95551.45
2018-09-28T05:47:50.638Z,95545.77
2018-09-28T05:50:19.855Z,95546.25
2018-09-28T05:52:49.072Z,95548.83
2018-09-28T05:55:18.279Z,95547.61
2018-09-28T05:57:47.507Z,95542.14
2018-09-28T06:00:21.962Z,95543.10
2018-09-28T06:02:56.551Z,95550.17
2018-09-28T06:05:30.918Z,95537.83
2018-09-28T06:08:00.113Z,95536.23
2018-09-28T06:10:29.338Z,95534.67
2018-09-28T06:12:58.575Z,95533.78
2018-09-28T06:15:27.795Z,95537.16
2018-09-28T06:17:57.104Z,95533.36
2018-09-28T06:20:26.314Z,95525.75
2018-09-28T06:22:55.601Z,95528.80
2018-09-28T06:25:24.831Z,95527.60
2018-09-28T06:27:55.263Z,95524.48
2018-09-28T06:30:30.923Z,95526.72
2018-09-28T06:33:00.201Z,95530.68
2018-09-28T06:35:29.465Z,95533.81
2018-09-28T06:37:58.694Z,95533.42
2018-09-28T06:40:27.935Z,95537.16
2018-09-28T06:42:58.412Z,95541.91
2018-09-28T06:45:27.639Z,95535.84
2018-09-28T06:47:57.102Z,95539.83
2018-09-28T06:50:26.147Z,95533.34
2018-09-28T06:52:55.424Z,95538.92
2018-09-28T06:55:24.652Z,95536.84
2018-09-28T06:57:53.866Z,95538.16
2018-09-28T07:00:23.160Z,95538.91
2018-09-28T07:02:52.318Z,95541.52
2018-09-28T07:05:21.555Z,95542.95
2018-09-28T07:07:50.827Z,95532.31
2018-09-28T07:10:20.055Z,95544.22
2018-09-28T07:12:49.271Z,95544.97
2018-09-28T07:15:18.522Z,95539.97
2018-09-28T07:17:48.028Z,95551.72
2018-09-28T07:20:17.195Z,95552.64
2018-09-28T07:22:46.421Z,95551.47
2018-09-28T07:25:15.895Z,95547.91
2018-09-28T07:27:44.990Z,95550.31
2018-09-28T07:30:14.274Z,95542.64
2018-09-28T07:32:43.585Z,95544.58
2018-09-28T07:35:12.854Z,95545.17
2018-09-28T07:37:42.094Z,95538.57
2018-09-28T07:40:11.308Z,95540.05
2018-09-28T07:42:40.523Z,95533.92
2018-09-28T07:45:09.739Z,95539.73
2018-09-28T07:47:39.000Z,95536.29
2018-09-28T07:50:08.182Z,95538.47
2018-09-28T07:52:37.432Z,95533.97
2018-09-28T07:55:06.643Z,95541.69
2018-09-28T07:57:35.851Z,95544.27
2018-09-28T08:00:05.110Z,95535.84
2018-09-28T08:02:34.486Z,95539.39
2018-09-28T08:05:03.720Z,95539.20
2018-09-28T08:07:32.946Z,95545.92
2018-09-28T08:10:02.325Z,95542.22
2018-09-28T08:12:31.482Z,95531.91
2018-09-28T08:15:00.719Z,95528.50
2018-09-28T08:17:30.050Z,95529.11
2018-09-28T08:19:59.267Z,95522.47
2018-09-28T08:22:28.499Z,95525.36
2018-09-28T08:24:57.843Z,95521.55
2018-09-28T08:27:27.055Z,95525.99
2018-09-28T08:29:56.278Z,95530.23
2018-09-28T08:32:25.527Z,95523.73
2018-09-28T08:34:54.920Z,95527.23
2018-09-28T08:37:24.144Z,95532.70
2018-09-28T08:39:53.365Z,95523.75
2018-09-28T08:42:22.586Z,95526.30
2018-09-28T08:44:51.787Z,95517.61
2018-09-28T08:47:21.007Z,95524.43
2018-09-28T08:49:50.247Z,95517.55
2018-09-28T08:52:19.449Z,95516.69
2018-09-28T08:54:48.687Z,95518.02
2018-09-28T08:57:17.911Z,95517.58
2018-09-28T08:59:47.122Z,95509.39
2018-09-28T09:02:16.369Z,95516.19
2018-09-28T09:04:45.561Z,95517.14
2018-09-28T09:07:14.782Z,95502.23
2018-09-28T09:09:44.245Z,95504.85
2018-09-28T09:12:13.467Z,95491.04
2018-09-28T09:14:42.678Z,95493.58
2018-09-28T09:17:11.911Z,95495.77
2018-09-28T09:19:41.142Z,95501.73
2018-09-28T09:22:10.356Z,95498.72
2018-09-28T09:24:39.574Z,95489.69
2018-09-28T09:27:08.783Z,95493.15
2018-09-28T09:29:37.999Z,95488.91
2018-09-28T09:32:07.207Z,95487.88
2018-09-28T09:34:36.417Z,95485.45
2018-09-28T09:37:05.659Z,95484.45
2018-09-28T09:39:34.867Z,95479.06
2018-09-28T09:42:04.083Z,95482.23
2018-09-28T09:44:33.295Z,95476.57
2018-09-28T09:47:02.514Z,95476.28
2018-09-28T09:49:31.726Z,95475.70
2018-09-28T09:52:00.947Z,95469.80
2018-09-28T09:54:30.175Z,95466.94
2018-09-28T09:56:59.395Z,95475.52
2018-09-28T09:59:28.635Z,95463.31
2018-09-28T10:02:02.975Z,95463.28
2018-09-28T10:04:32.238Z,95455.15
2018-09-28T10:07:02.362Z,95454.64
2018-09-28T10:09:31.641Z,95449.46
2018-09-28T10:12:00.819Z,95446.64
2018-09-28T10:14:30.039Z,95443.52
2018-09-28T10:16:59.250Z,95442.52
2018-09-28T10:19:28.503Z,95443.20
2018-09-28T10:21:57.706Z,95449.48
2018-09-28T10:24:26.926Z,95453.41
2018-09-28T10:26:56.204Z,95444.38
2018-09-28T10:29:25.389Z,95444.33
2018-09-28T10:31:54.590Z,95445.34
2018-09-28T10:34:23.905Z,95455.48
2018-09-28T10:36:53.033Z,95449.45
2018-09-28T10:39:22.294Z,95446.83
2018-09-28T10:41:51.475Z,95436.86
2018-09-28T10:44:20.701Z,95439.50
2018-09-28T10:46:49.929Z,95436.61
2018-09-28T10:49:19.196Z,95432.27
2018-09-28T10:51:48.486Z,95423.83
2018-09-28T10:54:17.667Z,95419.41
2018-09-28T10:56:46.890Z,95416.59
2018-09-28T10:59:16.119Z,95412.97
2018-09-28T11:01:45.383Z,95409.78
2018-09-28T11:04:14.668Z,95408.78
2018-09-28T11:06:43.879Z,95401.58
2018-09-28T11:09:13.534Z,95397.68
2018-09-28T11:11:43.041Z,95404.95
2018-09-28T11:14:12.266Z,95394.22
2018-09-28T11:16:41.581Z,95389.48
2018-09-28T11:19:11.926Z,95392.42
2018-09-28T11:21:41.189Z,95383.63
2018-09-28T11:24:10.389Z,95387.72
2018-09-28T11:26:39.614Z,95387.73
2018-09-28T11:29:08.935Z,95386.40
2018-09-28T11:31:38.167Z,95379.61
2018-09-28T11:34:07.379Z,95378.25
2018-09-28T11:36:36.595Z,95379.91
2018-09-28T11:39:07.065Z,95368.94
2018-09-28T11:41:36.366Z,95365.77
2018-09-28T11:44:06.826Z,95365.55
2018-09-28T11:46:36.071Z,95365.67
2018-09-28T11:49:05.378Z,95363.73
2018-09-28T11:51:34.548Z,95363.67
2018-09-28T11:54:03.778Z,95357.95
2018-09-28T11:56:33.003Z,95356.73
2018-09-28T11:59:02.211Z,95357.53
2018-09-28T12:01:31.440Z,95347.62
2018-09-28T12:04:00.674Z,95345.69
2018-09-28T12:06:30.037Z,95346.21
2018-09-28T12:08:59.141Z,95346.14
2018-09-28T12:11:28.374Z,95352.92
2018-09-28T12:13:57.611Z,95345.77
2018-09-28T12:16:26.835Z,95336.27
2018-09-28T12:18:56.198Z,95333.48
2018-09-28T12:21:25.493Z,95328.08
2018-09-28T12:23:54.624Z,95324.09
2018-09-28T12:26:23.873Z,95322.72
2018-09-28T12:28:53.078Z,95311.91
2018-09-28T12:31:22.281Z,95311.38
2018-09-28T12:33:51.529Z,95307.34
2018-09-28T12:36:20.784Z,95299.25
2018-09-28T12:38:49.983Z,95301.13
2018-09-28T12:41:19.207Z,95300.77
2018-09-28T12:43:48.439Z,95290.27
2018-09-28T12:46:17.642Z,95291.29
2018-09-28T12:48:46.929Z,95289.92
2018-09-28T12:51:16.087Z,95293.63
2018-09-28T12:53:45.407Z,95289.31
2018-09-28T12:56:15.503Z,95283.03
2018-09-28T12:58:44.666Z,95276.50
2018-09-28T13:01:14.041Z,95280.70
2018-09-28T13:03:43.151Z,95282.73
2018-09-28T13:06:12.650Z,95277.32
2018-09-28T13:08:41.910Z,95273.27
2018-09-28T13:11:11.123Z,95276.94
2018-09-28T13:13:40.350Z,95275.73
2018-09-28T13:16:09.667Z,95267.33
2018-09-28T13:18:38.915Z,95260.70
2018-09-28T13:21:08.177Z,95259.66
2018-09-28T13:23:37.379Z,95260.34
2018-09-28T13:26:06.693Z,95254.92
2018-09-28T13:28:35.914Z,95259.94
2018-09-28T13:31:05.155Z,95272.59
2018-09-28T13:33:34.390Z,95264.78
2018-09-28T13:36:03.616Z,95263.95
2018-09-28T13:38:39.858Z,95262.31
2018-09-28T13:41:09.071Z,95260.83
2018-09-28T13:43:38.359Z,95262.92
2018-09-28T13:46:08.090Z,95252.81
2018-09-28T13:48:37.307Z,95252.46
2018-09-28T13:51:06.806Z,95253.77
2018-09-28T13:53:36.057Z,95246.28
2018-09-28T13:56:05.283Z,95249.50
2018-09-28T13:58:35.242Z,95242.34
2018-09-28T14:01:04.400Z,95241.84
2018-09-28T14:03:33.627Z,95238.98
2018-09-28T14:06:02.839Z,95238.94
2018-09-28T14:08:32.080Z,95236.48
2018-09-28T14:11:01.331Z,95233.48
2018-09-28T14:13:30.574Z,95231.80
2018-09-28T14:15:59.791Z,95229.31
2018-09-28T14:18:29.059Z,95236.65
2018-09-28T14:20:58.271Z,95242.83
2018-09-28T14:23:27.524Z,95242.28
2018-09-28T14:25:56.846Z,95238.94
2018-09-28T14:28:26.331Z,95246.56
2018-09-28T14:30:55.495Z,95234.22
2018-09-28T14:33:24.722Z,95245.53
2018-09-28T14:35:53.949Z,95240.44
2018-09-28T14:38:23.291Z,95241.52
2018-09-28T14:40:52.384Z,95233.76
2018-09-28T14:43:21.626Z,95229.25
2018-09-28T14:45:50.874Z,95230.81
2018-09-28T14:48:20.175Z,95230.33
2018-09-28T14:50:49.457Z,95232.77
2018-09-28T14:53:18.646Z,95241.30
2018-09-28T14:55:47.865Z,95230.31
2018-09-28T14:58:18.327Z,95233.34
2018-09-28T15:00:47.627Z,95236.97
2018-09-28T15:03:16.751Z,95240.30
2018-09-28T15:05:45.990Z,95235.66
2018-09-28T15:08:15.242Z,95237.59
2018-09-28T15:10:44.476Z,95232.61
2018-09-28T15:13:13.666Z,95235.39
2018-09-28T15:15:42.932Z,95234.11
2018-09-28T15:18:12.200Z,95232.98
2018-09-28T15:20:41.395Z,95233.77
2018-09-28T15:23:10.628Z,95227.00
2018-09-28T15:25:39.858Z,95232.89
2018-09-28T15:28:09.085Z,95231.36
2018-09-28T15:30:38.311Z,95229.97
2018-09-28T15:33:07.538Z,95234.71
2018-09-28T15:35:36.763Z,95240.70
2018-09-28T15:38:06.056Z,95243.02
2018-09-28T15:40:35.270Z,95238.80
2018-09-28T15:43:04.502Z,95241.78
2018-09-28T15:45:33.749Z,95241.77
2018-09-28T15:48:02.999Z,95234.56
2018-09-28T15:50:32.231Z,95244.98
2018-09-28T15:53:01.462Z,95240.30
2018-09-28T15:55:30.686Z,95245.05
2018-09-28T15:58:01.008Z,95245.48
2018-09-28T16:00:30.326Z,95252.09
2018-09-28T16:02:59.535Z,95258.75
2018-09-28T16:05:28.754Z,95250.83
2018-09-28T16:07:57.999Z,95254.34
2018-09-28T16:10:27.230Z,95260.19
2018-09-28T16:12:56.572Z,95259.06
2018-09-28T16:15:25.783Z,95262.67
2018-09-28T16:17:55.004Z,95266.36
2018-09-28T16:20:24.220Z,95263.72
2018-09-28T16:22:53.481Z,95270.09
2018-09-28T16:25:22.844Z,95266.20
2018-09-28T16:27:52.093Z,95269.55
2018-09-28T16:30:21.324Z,95270.70
2018-09-28T16:32:50.523Z,95277.96
2018-09-28T16:35:19.778Z,95271.25
2018-09-28T16:37:49.008Z,95273.34
2018-09-28T16:40:18.226Z,95270.02
2018-09-28T16:42:47.466Z,95275.14
2018-09-28T16:45:16.722Z,95277.41
2018-09-28T16:47:45.955Z,95284.16
2018-09-28T16:50:15.167Z,95289.48
2018-09-28T16:52:44.378Z,95289.86
2018-09-28T16:55:13.602Z,95297.66
2018-09-28T16:57:43.811Z,95295.88
2018-09-28T17:00:13.006Z,95296.67
2018-09-28T17:02:42.387Z,95296.33
2018-09-28T17:05:11.743Z,95303.30
2018-09-28T17:07:41.025Z,95301.80
2018-09-28T17:10:10.261Z,95307.05
2018-09-28T17:12:39.502Z,95310.52
2018-09-28T17:15:08.732Z,95312.42
2018-09-28T17:17:37.960Z,95316.50
2018-09-28T17:20:07.308Z,95316.69
2018-09-28T17:22:36.514Z,95319.33
2018-09-28T17:25:05.790Z,95323.55
2018-09-28T17:27:35.007Z,95330.30
2018-09-28T17:30:04.234Z,95335.44
2018-09-28T17:32:33.466Z,95334.19
2018-09-28T17:35:02.700Z,95336.22
2018-09-28T17:37:31.965Z,95340.58
2018-09-28T17:40:01.143Z,95343.91
2018-09-28T17:42:30.365Z,95345.75
2018-09-28T17:44:59.599Z,95351.43
2018-09-28T17:47:28.819Z,95352.88
2018-09-28T17:49:58.091Z,95355.24
2018-09-28T17:52:27.331Z,95358.00
2018-09-28T17:54:56.591Z,95361.65
2018-09-28T17:57:25.819Z,95369.41
2018-09-28T17:59:55.027Z,95372.48
2018-09-28T18:02:24.246Z,95373.60
2018-09-28T18:04:53.482Z,95381.01
2018-09-28T18:07:22.727Z,95384.98
2018-09-28T18:14:49.778Z,95382.97
2018-09-28T18:17:19.005Z,95396.64
2018-09-28T18:19:48.540Z,95396.26
2018-09-28T18:22:17.877Z,95401.82
2018-09-28T18:24:47.099Z,95402.55
2018-09-28T18:27:16.460Z,95410.61
2018-09-28T18:29:45.632Z,95416.27
2018-09-28T18:32:15.035Z,95415.41
2018-09-28T18:34:44.286Z,95420.96
2018-09-28T18:37:13.518Z,95431.09
2018-09-28T18:39:42.755Z,95431.14
2018-09-28T18:42:12.039Z,95438.45
2018-09-28T18:44:41.230Z,95430.89
2018-09-28T18:47:10.476Z,95435.61
2018-09-28T18:49:39.707Z,95433.77
2018-09-28T18:52:08.947Z,95437.11
2018-09-28T18:54:38.190Z,95441.77
2018-09-28T18:57:07.699Z,95451.89
2018-09-28T18:59:36.926Z,95440.94
2018-09-28T19:02:06.277Z,95450.31
2018-09-28T19:04:35.514Z,95449.52
2018-09-28T19:07:04.832Z,95447.41
2018-09-28T19:09:34.077Z,95452.30
2018-09-28T19:12:03.305Z,95456.09
2018-09-28T19:14:32.552Z,95451.19
2018-09-28T19:17:01.783Z,95450.23
2018-09-28T19:19:31.024Z,95461.67
2018-09-28T19:22:00.275Z,95471.55
2018-09-28T19:24:29.535Z,95478.80
2018-09-28T19:26:58.754Z,95481.09
2018-09-28T19:29:28.006Z,95489.44
2018-09-28T19:31:57.315Z,95492.99
2018-09-28T19:34:26.978Z,95490.11
2018-09-28T19:36:56.218Z,95498.49
2018-09-28T19:39:25.500Z,95498.70
2018-09-28T19:41:54.756Z,95498.86
2018-09-28T19:44:24.010Z,95502.08
2018-09-28T19:46:53.355Z,95499.10
2018-09-28T19:49:22.672Z,95496.67
2018-09-28T19:51:51.923Z,95506.52
2018-09-28T19:54:21.227Z,95505.59
2018-09-28T19:56:50.483Z,95508.34
2018-09-28T19:59:19.746Z,95516.16
2018-09-28T20:01:48.999Z,95516.98
2018-09-28T20:04:18.228Z,95519.63
2018-09-28T20:06:47.460Z,95521.64
2018-09-28T20:09:16.695Z,95528.54
2018-09-28T20:11:45.922Z,95520.09
2018-09-28T20:14:46.045Z,95518.44
2018-09-28T20:17:15.287Z,95517.54
2018-09-28T20:19:44.524Z,95523.67
2018-09-28T20:22:14.499Z,95529.45
2018-09-28T20:24:44.684Z,95534.37
2018-09-28T20:27:13.954Z,95539.81
2018-09-28T20:29:43.351Z,95532.92
2018-09-28T20:32:12.761Z,95542.20
2018-09-28T20:34:42.051Z,95536.98
2018-09-28T20:37:11.367Z,95548.27
2018-09-28T20:39:40.723Z,95550.70
2018-09-28T20:42:10.051Z,95553.91
2018-09-28T20:44:39.419Z,95561.86
2018-09-28T20:47:08.767Z,95566.03
2018-09-28T20:49:38.112Z,95572.47
2018-09-28T20:52:07.559Z,95570.80
2018-09-28T20:54:36.864Z,95571.50
2018-09-28T20:57:06.191Z,95573.73
2018-09-28T20:59:35.527Z,95573.70
2018-09-28T21:02:04.818Z,95575.58
2018-09-28T21:04:34.130Z,95579.89
2018-09-28T21:07:03.464Z,95587.20
2018-09-28T21:09:32.791Z,95592.47
2018-09-28T21:12:02.225Z,95591.81
2018-09-28T21:14:31.572Z,95593.22
2018-09-28T21:17:00.873Z,95602.66
2018-09-28T21:19:31.414Z,95599.23
2018-09-28T21:22:00.690Z,95602.74
2018-09-28T21:24:30.049Z,95601.13
2018-09-28T21:26:59.371Z,95598.96
2018-09-28T21:29:28.663Z,95611.69
2018-09-28T21:31:58.021Z,95615.00
2018-09-28T21:34:27.299Z,95608.13
2018-09-28T21:36:56.678Z,95604.19
2018-09-28T21:39:25.999Z,95600.58
2018-09-28T21:41:55.315Z,95608.48
2018-09-28T21:44:24.614Z,95615.72
2018-09-28T21:46:53.918Z,95629.73
2018-09-28T21:49:23.341Z,95632.88
2018-09-28T21:51:52.628Z,95633.70
2018-09-28T21:54:21.919Z,95638.34
2018-09-28T21:56:51.196Z,95638.73
2018-09-28T21:59:20.583Z,95645.95
2018-09-28T22:01:49.926Z,95638.73
2018-09-28T22:04:19.226Z,95651.09
2018-09-28T22:06:49.788Z,95657.52
2018-09-28T22:09:19.080Z,95661.66
2018-09-28T22:11:48.409Z,95661.66
2018-09-28T22:14:18.857Z,95660.35
2018-09-28T22:16:49.153Z,95664.49
2018-09-28T22:19:19.439Z,95666.63
2018-09-28T22:21:49.448Z,95670.09
2018-09-28T22:24:18.975Z,95678.86
2018-09-28T22:26:48.266Z,95679.20
2018-09-28T22:29:17.531Z,95687.43
2018-09-28T22:31:47.940Z,95688.09
2018-09-28T22:34:17.515Z,95693.36
2018-09-28T22:36:47.078Z,95695.71
2018-09-28T22:39:16.658Z,95693.06
2018-09-28T22:41:45.935Z,95698.18
2018-09-28T22:44:15.232Z,95697.37
2018-09-28T22:46:44.535Z,95697.03
2018-09-28T22:49:13.839Z,95704.93
2018-09-28T22:51:43.132Z,95709.37
2018-09-28T22:54:12.437Z,95704.91
2018-09-28T22:56:41.765Z,95703.77
2018-09-28T22:59:11.104Z,95699.65
2018-09-28T23:01:40.520Z,95698.20
2018-09-28T23:04:10.138Z,95700.65
2018-09-28T23:06:39.412Z,95707.58
2018-09-28T23:09:09.720Z,95699.50
2018-09-28T23:11:39.064Z,95698.52
2018-09-28T23:14:08.360Z,95707.37
2018-09-28T23:16:37.735Z,95707.88
2018-09-28T23:19:07.086Z,95705.69
2018-09-28T23:21:36.455Z,95709.92
2018-09-28T23:24:05.732Z,95717.28
2018-09-28T23:26:35.037Z,95727.61
2018-09-28T23:29:04.324Z,95734.35
2018-09-28T23:31:33.656Z,95729.94
2018-09-28T23:34:03.051Z,95735.73
2018-09-28T23:36:32.401Z,95739.98
2018-09-28T23:39:02.039Z,95737.69
2018-09-28T23:41:31.363Z,95728.52
2018-09-28T23:44:00.638Z,95730.80
2018-09-28T23:46:29.931Z,95733.91
2018-09-28T23:48:59.359Z,95736.89
2018-09-28T23:51:28.695Z,95744.92
2018-09-28T23:53:58.035Z,95750.84
2018-09-28T23:56:27.367Z,95744.09
2018-09-28T23:58:56.825Z,95734.41
